sensor_id;sensor_type;location;lat;lon;timestamp;P1;durP1;ratioP1;P2;durP2;ratioP2
13421;SDS011;6782;55.904;13.396;2023-03-08T00:00:49;4.00;;;1.00;;
13421;SDS011;6782;55.904;13.396;2023-03-08T00:03:38;5.67;;;1.60;;
13421;SDS011;6782;55.904;13.396;2023-03-08T00:06:26;2.80;;;1.13;;
13421;SDS011;6782;55.904;13.396;2023-03-08T00:09:14;3.83;;;1.07;;
13421;SDS011;6782;55.904;13.396;2023-03-08T00:12:01;4.50;;;1.10;;
13421;SDS011;6782;55.904;13.396;2023-03-08T00:14:48;1.23;;;1.07;;
13421;SDS011;6782;55.904;13.396;2023-03-08T00:17:35;2.37;;;1.07;;
13421;SDS011;6782;55.904;13.396;2023-03-08T00:20:24;2.10;;;1.13;;
13421;SDS011;6782;55.904;13.396;2023-03-08T00:23:11;3.20;;;1.00;;
13421;SDS011;6782;55.904;13.396;2023-03-08T00:25:59;4.67;;;1.37;;
13421;SDS011;6782;55.904;13.396;2023-03-08T00:28:47;6.50;;;1.47;;
13421;SDS011;6782;55.904;13.396;2023-03-08T00:31:34;4.23;;;1.30;;
13421;SDS011;6782;55.904;13.396;2023-03-08T00:34:21;2.80;;;1.07;;
13421;SDS011;6782;55.904;13.396;2023-03-08T00:37:10;1.83;;;0.80;;
13421;SDS011;6782;55.904;13.396;2023-03-08T00:39:57;3.90;;;1.17;;
13421;SDS011;6782;55.904;13.396;2023-03-08T00:42:44;4.30;;;1.00;;
13421;SDS011;6782;55.904;13.396;2023-03-08T00:45:31;2.47;;;0.80;;
13421;SDS011;6782;55.904;13.396;2023-03-08T00:48:18;2.73;;;0.93;;
13421;SDS011;6782;55.904;13.396;2023-03-08T00:51:06;3.90;;;1.23;;
13421;SDS011;6782;55.904;13.396;2023-03-08T00:53:56;1.20;;;0.80;;
13421;SDS011;6782;55.904;13.396;2023-03-08T00:56:44;3.30;;;1.17;;
13421;SDS011;6782;55.904;13.396;2023-03-08T00:59:31;3.20;;;1.30;;
13421;SDS011;6782;55.904;13.396;2023-03-08T01:02:18;3.70;;;1.40;;
13421;SDS011;6782;55.904;13.396;2023-03-08T01:05:06;4.07;;;1.17;;
13421;SDS011;6782;55.904;13.396;2023-03-08T01:07:54;2.97;;;1.00;;
13421;SDS011;6782;55.904;13.396;2023-03-08T01:10:46;0.93;;;0.73;;
13421;SDS011;6782;55.904;13.396;2023-03-08T01:13:35;2.50;;;0.80;;
13421;SDS011;6782;55.904;13.396;2023-03-08T01:16:23;2.90;;;0.90;;
13421;SDS011;6782;55.904;13.396;2023-03-08T01:19:12;2.53;;;0.90;;
13421;SDS011;6782;55.904;13.396;2023-03-08T01:21:59;2.93;;;0.80;;
13421;SDS011;6782;55.904;13.396;2023-03-08T01:24:47;1.67;;;0.60;;
13421;SDS011;6782;55.904;13.396;2023-03-08T01:27:38;2.20;;;0.73;;
13421;SDS011;6782;55.904;13.396;2023-03-08T01:30:25;2.73;;;0.70;;
13421;SDS011;6782;55.904;13.396;2023-03-08T01:33:13;1.53;;;0.60;;
13421;SDS011;6782;55.904;13.396;2023-03-08T01:36:01;1.50;;;0.73;;
13421;SDS011;6782;55.904;13.396;2023-03-08T01:38:49;1.43;;;0.80;;
13421;SDS011;6782;55.904;13.396;2023-03-08T01:41:36;1.53;;;0.70;;
13421;SDS011;6782;55.904;13.396;2023-03-08T01:44:25;0.80;;;0.70;;
13421;SDS011;6782;55.904;13.396;2023-03-08T01:47:13;4.63;;;1.03;;
13421;SDS011;6782;55.904;13.396;2023-03-08T01:50:07;1.63;;;0.70;;
13421;SDS011;6782;55.904;13.396;2023-03-08T01:52:58;0.60;;;0.60;;
13421;SDS011;6782;55.904;13.396;2023-03-08T01:55:45;1.13;;;0.40;;
13421;SDS011;6782;55.904;13.396;2023-03-08T01:58:33;2.27;;;0.70;;
13421;SDS011;6782;55.904;13.396;2023-03-08T02:01:23;0.97;;;0.80;;
13421;SDS011;6782;55.904;13.396;2023-03-08T02:04:10;1.80;;;0.70;;
13421;SDS011;6782;55.904;13.396;2023-03-08T02:06:58;2.10;;;0.80;;
13421;SDS011;6782;55.904;13.396;2023-03-08T02:09:45;1.77;;;0.60;;
13421;SDS011;6782;55.904;13.396;2023-03-08T02:12:33;1.47;;;0.70;;
13421;SDS011;6782;55.904;13.396;2023-03-08T02:15:22;1.47;;;0.80;;
13421;SDS011;6782;55.904;13.396;2023-03-08T02:18:10;1.40;;;0.77;;
13421;SDS011;6782;55.904;13.396;2023-03-08T02:20:57;2.60;;;0.90;;
13421;SDS011;6782;55.904;13.396;2023-03-08T02:23:47;1.93;;;1.10;;
13421;SDS011;6782;55.904;13.396;2023-03-08T02:26:34;3.47;;;0.97;;
13421;SDS011;6782;55.904;13.396;2023-03-08T02:29:23;1.83;;;0.60;;
13421;SDS011;6782;55.904;13.396;2023-03-08T02:32:10;1.20;;;0.70;;
13421;SDS011;6782;55.904;13.396;2023-03-08T02:34:58;1.80;;;0.70;;
13421;SDS011;6782;55.904;13.396;2023-03-08T02:37:45;2.00;;;0.90;;
13421;SDS011;6782;55.904;13.396;2023-03-08T02:40:34;3.33;;;1.03;;
13421;SDS011;6782;55.904;13.396;2023-03-08T02:43:21;3.53;;;1.10;;
13421;SDS011;6782;55.904;13.396;2023-03-08T02:46:09;1.97;;;0.80;;
13421;SDS011;6782;55.904;13.396;2023-03-08T02:48:56;2.80;;;0.93;;
13421;SDS011;6782;55.904;13.396;2023-03-08T02:51:44;0.77;;;0.57;;
13421;SDS011;6782;55.904;13.396;2023-03-08T02:54:31;1.93;;;0.90;;
13421;SDS011;6782;55.904;13.396;2023-03-08T02:57:20;2.17;;;0.70;;
13421;SDS011;6782;55.904;13.396;2023-03-08T03:00:09;2.40;;;0.73;;
13421;SDS011;6782;55.904;13.396;2023-03-08T03:02:57;1.87;;;0.80;;
13421;SDS011;6782;55.904;13.396;2023-03-08T03:05:44;2.47;;;0.70;;
13421;SDS011;6782;55.904;13.396;2023-03-08T03:08:32;1.17;;;0.67;;
13421;SDS011;6782;55.904;13.396;2023-03-08T03:11:20;2.87;;;0.93;;
13421;SDS011;6782;55.904;13.396;2023-03-08T03:14:09;3.03;;;0.80;;
13421;SDS011;6782;55.904;13.396;2023-03-08T03:16:57;1.27;;;0.63;;
13421;SDS011;6782;55.904;13.396;2023-03-08T03:19:44;0.90;;;0.80;;
13421;SDS011;6782;55.904;13.396;2023-03-08T03:22:32;1.87;;;1.10;;
13421;SDS011;6782;55.904;13.396;2023-03-08T03:25:19;2.13;;;0.70;;
13421;SDS011;6782;55.904;13.396;2023-03-08T03:28:06;1.60;;;0.77;;
13421;SDS011;6782;55.904;13.396;2023-03-08T03:30:55;1.67;;;0.80;;
13421;SDS011;6782;55.904;13.396;2023-03-08T03:33:42;1.47;;;0.70;;
13421;SDS011;6782;55.904;13.396;2023-03-08T03:36:30;2.13;;;0.90;;
13421;SDS011;6782;55.904;13.396;2023-03-08T03:39:18;2.43;;;0.80;;
13421;SDS011;6782;55.904;13.396;2023-03-08T03:42:06;0.67;;;0.60;;
13421;SDS011;6782;55.904;13.396;2023-03-08T03:44:53;0.80;;;0.77;;
13421;SDS011;6782;55.904;13.396;2023-03-08T03:47:42;2.40;;;0.90;;
13421;SDS011;6782;55.904;13.396;2023-03-08T03:50:29;1.13;;;0.70;;
13421;SDS011;6782;55.904;13.396;2023-03-08T03:53:17;0.57;;;0.57;;
13421;SDS011;6782;55.904;13.396;2023-03-08T03:56:04;1.60;;;0.90;;
13421;SDS011;6782;55.904;13.396;2023-03-08T03:58:53;2.00;;;0.90;;
13421;SDS011;6782;55.904;13.396;2023-03-08T04:01:40;2.77;;;0.70;;
13421;SDS011;6782;55.904;13.396;2023-03-08T04:04:29;2.83;;;0.90;;
13421;SDS011;6782;55.904;13.396;2023-03-08T04:07:16;4.47;;;0.70;;
13421;SDS011;6782;55.904;13.396;2023-03-08T04:10:04;4.10;;;0.93;;
13421;SDS011;6782;55.904;13.396;2023-03-08T04:12:52;2.57;;;0.70;;
13421;SDS011;6782;55.904;13.396;2023-03-08T04:15:40;4.00;;;1.20;;
13421;SDS011;6782;55.904;13.396;2023-03-08T04:18:27;1.33;;;0.90;;
13421;SDS011;6782;55.904;13.396;2023-03-08T04:21:16;1.63;;;0.90;;
13421;SDS011;6782;55.904;13.396;2023-03-08T04:24:04;3.67;;;1.30;;
13421;SDS011;6782;55.904;13.396;2023-03-08T04:26:52;3.77;;;0.90;;
13421;SDS011;6782;55.904;13.396;2023-03-08T04:29:39;2.87;;;0.93;;
13421;SDS011;6782;55.904;13.396;2023-03-08T04:32:26;2.10;;;0.70;;
13421;SDS011;6782;55.904;13.396;2023-03-08T04:35:13;2.03;;;1.13;;
13421;SDS011;6782;55.904;13.396;2023-03-08T04:38:01;1.63;;;1.00;;
13421;SDS011;6782;55.904;13.396;2023-03-08T04:40:49;2.43;;;0.93;;
13421;SDS011;6782;55.904;13.396;2023-03-08T04:43:50;3.57;;;0.90;;
13421;SDS011;6782;55.904;13.396;2023-03-08T04:46:39;2.90;;;0.80;;
13421;SDS011;6782;55.904;13.396;2023-03-08T04:49:26;1.90;;;0.97;;
13421;SDS011;6782;55.904;13.396;2023-03-08T04:52:14;1.73;;;1.03;;
13421;SDS011;6782;55.904;13.396;2023-03-08T04:55:03;1.30;;;0.90;;
13421;SDS011;6782;55.904;13.396;2023-03-08T04:57:51;2.63;;;1.53;;
13421;SDS011;6782;55.904;13.396;2023-03-08T05:00:39;1.03;;;0.80;;
13421;SDS011;6782;55.904;13.396;2023-03-08T05:03:26;3.53;;;1.20;;
13421;SDS011;6782;55.904;13.396;2023-03-08T05:06:13;2.83;;;1.10;;
13421;SDS011;6782;55.904;13.396;2023-03-08T05:09:01;2.63;;;0.90;;
13421;SDS011;6782;55.904;13.396;2023-03-08T05:11:50;2.40;;;1.20;;
13421;SDS011;6782;55.904;13.396;2023-03-08T05:14:37;2.97;;;1.07;;
13421;SDS011;6782;55.904;13.396;2023-03-08T05:17:24;5.67;;;1.00;;
13421;SDS011;6782;55.904;13.396;2023-03-08T05:20:12;4.63;;;1.10;;
13421;SDS011;6782;55.904;13.396;2023-03-08T05:22:59;2.40;;;1.07;;
13421;SDS011;6782;55.904;13.396;2023-03-08T05:25:46;8.60;;;1.83;;
13421;SDS011;6782;55.904;13.396;2023-03-08T05:28:34;3.43;;;1.20;;
13421;SDS011;6782;55.904;13.396;2023-03-08T05:31:22;6.03;;;1.23;;
13421;SDS011;6782;55.904;13.396;2023-03-08T05:34:10;2.83;;;1.20;;
13421;SDS011;6782;55.904;13.396;2023-03-08T05:36:57;1.63;;;0.87;;
13421;SDS011;6782;55.904;13.396;2023-03-08T05:39:46;1.87;;;1.00;;
13421;SDS011;6782;55.904;13.396;2023-03-08T05:42:34;1.07;;;0.97;;
13421;SDS011;6782;55.904;13.396;2023-03-08T05:45:23;4.07;;;1.23;;
13421;SDS011;6782;55.904;13.396;2023-03-08T05:48:11;4.00;;;1.00;;
13421;SDS011;6782;55.904;13.396;2023-03-08T05:50:58;3.63;;;1.20;;
13421;SDS011;6782;55.904;13.396;2023-03-08T05:53:45;3.33;;;1.07;;
13421;SDS011;6782;55.904;13.396;2023-03-08T05:56:32;4.73;;;1.80;;
13421;SDS011;6782;55.904;13.396;2023-03-08T05:59:20;5.23;;;1.30;;
13421;SDS011;6782;55.904;13.396;2023-03-08T06:02:09;2.53;;;0.97;;
13421;SDS011;6782;55.904;13.396;2023-03-08T06:04:57;4.83;;;1.13;;
13421;SDS011;6782;55.904;13.396;2023-03-08T06:07:45;3.33;;;0.90;;
13421;SDS011;6782;55.904;13.396;2023-03-08T06:10:33;2.00;;;1.20;;
13421;SDS011;6782;55.904;13.396;2023-03-08T06:13:20;2.40;;;1.13;;
13421;SDS011;6782;55.904;13.396;2023-03-08T06:16:08;2.57;;;1.83;;
13421;SDS011;6782;55.904;13.396;2023-03-08T06:18:58;4.83;;;0.90;;
13421;SDS011;6782;55.904;13.396;2023-03-08T06:21:47;4.03;;;1.07;;
13421;SDS011;6782;55.904;13.396;2023-03-08T06:24:34;3.43;;;1.43;;
13421;SDS011;6782;55.904;13.396;2023-03-08T06:27:22;4.10;;;1.33;;
13421;SDS011;6782;55.904;13.396;2023-03-08T06:30:09;3.40;;;1.17;;
13421;SDS011;6782;55.904;13.396;2023-03-08T06:32:57;5.73;;;1.20;;
13421;SDS011;6782;55.904;13.396;2023-03-08T06:35:55;2.57;;;1.20;;
13421;SDS011;6782;55.904;13.396;2023-03-08T06:38:43;5.30;;;1.70;;
13421;SDS011;6782;55.904;13.396;2023-03-08T06:41:31;4.20;;;1.57;;
13421;SDS011;6782;55.904;13.396;2023-03-08T06:44:18;1.60;;;1.23;;
13421;SDS011;6782;55.904;13.396;2023-03-08T06:47:05;3.23;;;2.10;;
13421;SDS011;6782;55.904;13.396;2023-03-08T06:49:52;2.27;;;1.70;;
13421;SDS011;6782;55.904;13.396;2023-03-08T06:52:41;2.53;;;1.60;;
13421;SDS011;6782;55.904;13.396;2023-03-08T06:55:28;2.70;;;1.17;;
13421;SDS011;6782;55.904;13.396;2023-03-08T06:58:16;3.57;;;1.27;;
13421;SDS011;6782;55.904;13.396;2023-03-08T07:01:04;2.43;;;0.77;;
13421;SDS011;6782;55.904;13.396;2023-03-08T07:03:54;2.67;;;0.97;;
13421;SDS011;6782;55.904;13.396;2023-03-08T07:06:41;3.03;;;1.20;;
13421;SDS011;6782;55.904;13.396;2023-03-08T07:09:30;2.60;;;1.37;;
13421;SDS011;6782;55.904;13.396;2023-03-08T07:12:17;1.63;;;1.00;;
13421;SDS011;6782;55.904;13.396;2023-03-08T07:15:05;3.43;;;1.43;;
13421;SDS011;6782;55.904;13.396;2023-03-08T07:17:53;2.00;;;1.10;;
13421;SDS011;6782;55.904;13.396;2023-03-08T07:20:22;4.33;;;1.43;;
13421;SDS011;6782;55.904;13.396;2023-03-08T07:22:50;2.47;;;1.30;;
13421;SDS011;6782;55.904;13.396;2023-03-08T07:25:19;3.80;;;1.67;;
13421;SDS011;6782;55.904;13.396;2023-03-08T07:27:47;2.63;;;1.80;;
13421;SDS011;6782;55.904;13.396;2023-03-08T07:30:15;4.37;;;1.80;;
13421;SDS011;6782;55.904;13.396;2023-03-08T07:32:43;3.70;;;2.00;;
13421;SDS011;6782;55.904;13.396;2023-03-08T07:35:11;3.53;;;1.60;;
13421;SDS011;6782;55.904;13.396;2023-03-08T07:37:42;3.77;;;2.00;;
13421;SDS011;6782;55.904;13.396;2023-03-08T07:40:13;4.10;;;1.27;;
13421;SDS011;6782;55.904;13.396;2023-03-08T07:42:43;4.00;;;1.63;;
13421;SDS011;6782;55.904;13.396;2023-03-08T07:45:11;6.53;;;1.73;;
13421;SDS011;6782;55.904;13.396;2023-03-08T07:47:39;3.10;;;1.50;;
13421;SDS011;6782;55.904;13.396;2023-03-08T07:50:06;3.07;;;1.43;;
13421;SDS011;6782;55.904;13.396;2023-03-08T07:52:35;4.07;;;1.90;;
13421;SDS011;6782;55.904;13.396;2023-03-08T07:55:02;2.20;;;1.37;;
13421;SDS011;6782;55.904;13.396;2023-03-08T07:57:47;2.37;;;1.10;;
13421;SDS011;6782;55.904;13.396;2023-03-08T08:00:15;1.80;;;1.23;;
13421;SDS011;6782;55.904;13.396;2023-03-08T08:02:43;2.10;;;1.00;;
13421;SDS011;6782;55.904;13.396;2023-03-08T08:05:10;3.13;;;1.20;;
13421;SDS011;6782;55.904;13.396;2023-03-08T08:07:37;3.43;;;1.10;;
13421;SDS011;6782;55.904;13.396;2023-03-08T08:10:05;5.57;;;1.87;;
13421;SDS011;6782;55.904;13.396;2023-03-08T08:12:34;4.10;;;1.60;;
13421;SDS011;6782;55.904;13.396;2023-03-08T08:15:06;5.00;;;2.40;;
13421;SDS011;6782;55.904;13.396;2023-03-08T08:17:33;1.27;;;1.07;;
13421;SDS011;6782;55.904;13.396;2023-03-08T08:20:06;3.90;;;1.70;;
13421;SDS011;6782;55.904;13.396;2023-03-08T08:22:35;2.43;;;1.70;;
13421;SDS011;6782;55.904;13.396;2023-03-08T08:25:03;3.20;;;2.10;;
13421;SDS011;6782;55.904;13.396;2023-03-08T08:27:33;4.77;;;2.10;;
13421;SDS011;6782;55.904;13.396;2023-03-08T08:30:01;3.53;;;1.70;;
13421;SDS011;6782;55.904;13.396;2023-03-08T08:32:31;4.73;;;2.77;;
13421;SDS011;6782;55.904;13.396;2023-03-08T08:34:59;4.83;;;1.10;;
13421;SDS011;6782;55.904;13.396;2023-03-08T08:37:27;2.33;;;2.00;;
13421;SDS011;6782;55.904;13.396;2023-03-08T08:39:55;4.07;;;2.17;;
13421;SDS011;6782;55.904;13.396;2023-03-08T08:42:25;4.33;;;1.63;;
13421;SDS011;6782;55.904;13.396;2023-03-08T08:44:52;2.60;;;1.47;;
13421;SDS011;6782;55.904;13.396;2023-03-08T08:47:20;2.93;;;1.23;;
13421;SDS011;6782;55.904;13.396;2023-03-08T08:49:50;3.53;;;1.30;;
13421;SDS011;6782;55.904;13.396;2023-03-08T08:52:18;2.77;;;1.10;;
13421;SDS011;6782;55.904;13.396;2023-03-08T08:54:56;1.10;;;0.90;;
13421;SDS011;6782;55.904;13.396;2023-03-08T08:57:26;2.40;;;1.30;;
13421;SDS011;6782;55.904;13.396;2023-03-08T08:59:53;1.70;;;1.20;;
13421;SDS011;6782;55.904;13.396;2023-03-08T09:02:39;2.23;;;1.20;;
13421;SDS011;6782;55.904;13.396;2023-03-08T09:05:28;2.77;;;1.20;;
13421;SDS011;6782;55.904;13.396;2023-03-08T09:08:16;3.57;;;1.10;;
13421;SDS011;6782;55.904;13.396;2023-03-08T09:11:03;1.53;;;0.93;;
13421;SDS011;6782;55.904;13.396;2023-03-08T09:13:53;4.57;;;1.20;;
13421;SDS011;6782;55.904;13.396;2023-03-08T09:16:40;2.27;;;1.10;;
13421;SDS011;6782;55.904;13.396;2023-03-08T09:19:28;4.13;;;1.33;;
13421;SDS011;6782;55.904;13.396;2023-03-08T09:22:17;2.27;;;1.03;;
13421;SDS011;6782;55.904;13.396;2023-03-08T09:25:05;1.20;;;0.80;;
13421;SDS011;6782;55.904;13.396;2023-03-08T09:27:53;1.83;;;0.90;;
13421;SDS011;6782;55.904;13.396;2023-03-08T09:30:40;1.43;;;0.90;;
13421;SDS011;6782;55.904;13.396;2023-03-08T09:33:28;0.70;;;0.70;;
13421;SDS011;6782;55.904;13.396;2023-03-08T09:35:58;2.13;;;0.70;;
13421;SDS011;6782;55.904;13.396;2023-03-08T09:38:27;2.23;;;0.70;;
13421;SDS011;6782;55.904;13.396;2023-03-08T09:40:57;0.60;;;0.50;;
13421;SDS011;6782;55.904;13.396;2023-03-08T09:43:36;3.50;;;0.77;;
13421;SDS011;6782;55.904;13.396;2023-03-08T09:46:11;2.00;;;1.00;;
13421;SDS011;6782;55.904;13.396;2023-03-08T09:48:41;0.70;;;0.70;;
13421;SDS011;6782;55.904;13.396;2023-03-08T09:51:13;1.07;;;0.90;;
13421;SDS011;6782;55.904;13.396;2023-03-08T09:53:48;2.03;;;0.60;;
13421;SDS011;6782;55.904;13.396;2023-03-08T09:56:20;1.87;;;0.67;;
13421;SDS011;6782;55.904;13.396;2023-03-08T09:58:54;0.60;;;0.60;;
13421;SDS011;6782;55.904;13.396;2023-03-08T10:01:28;1.90;;;0.80;;
13421;SDS011;6782;55.904;13.396;2023-03-08T10:04:06;2.20;;;0.83;;
13421;SDS011;6782;55.904;13.396;2023-03-08T10:06:42;1.67;;;0.70;;
13421;SDS011;6782;55.904;13.396;2023-03-08T10:09:23;0.97;;;0.77;;
13421;SDS011;6782;55.904;13.396;2023-03-08T10:12:00;1.33;;;0.90;;
13421;SDS011;6782;55.904;13.396;2023-03-08T10:14:37;1.50;;;1.00;;
13421;SDS011;6782;55.904;13.396;2023-03-08T10:17:11;2.30;;;1.20;;
13421;SDS011;6782;55.904;13.396;2023-03-08T10:19:42;1.33;;;0.87;;
13421;SDS011;6782;55.904;13.396;2023-03-08T10:22:15;0.70;;;0.70;;
13421;SDS011;6782;55.904;13.396;2023-03-08T10:24:51;1.47;;;0.80;;
13421;SDS011;6782;55.904;13.396;2023-03-08T10:27:40;1.77;;;0.90;;
13421;SDS011;6782;55.904;13.396;2023-03-08T10:30:10;0.87;;;0.87;;
13421;SDS011;6782;55.904;13.396;2023-03-08T10:32:41;0.87;;;0.80;;
13421;SDS011;6782;55.904;13.396;2023-03-08T10:35:16;1.50;;;1.00;;
13421;SDS011;6782;55.904;13.396;2023-03-08T10:37:49;1.67;;;0.80;;
13421;SDS011;6782;55.904;13.396;2023-03-08T10:40:19;0.90;;;0.80;;
13421;SDS011;6782;55.904;13.396;2023-03-08T10:42:48;1.60;;;0.90;;
13421;SDS011;6782;55.904;13.396;2023-03-08T10:45:19;1.53;;;0.77;;
13421;SDS011;6782;55.904;13.396;2023-03-08T10:47:56;0.50;;;0.50;;
13421;SDS011;6782;55.904;13.396;2023-03-08T10:50:25;0.90;;;0.70;;
13421;SDS011;6782;55.904;13.396;2023-03-08T10:52:54;1.27;;;0.80;;
13421;SDS011;6782;55.904;13.396;2023-03-08T10:55:41;1.10;;;0.60;;
13421;SDS011;6782;55.904;13.396;2023-03-08T10:58:23;0.60;;;0.60;;
13421;SDS011;6782;55.904;13.396;2023-03-08T11:00:55;3.70;;;1.13;;
13421;SDS011;6782;55.904;13.396;2023-03-08T11:03:24;1.10;;;0.70;;
13421;SDS011;6782;55.904;13.396;2023-03-08T11:05:53;0.87;;;0.80;;
13421;SDS011;6782;55.904;13.396;2023-03-08T11:08:23;1.20;;;0.70;;
13421;SDS011;6782;55.904;13.396;2023-03-08T11:11:05;1.47;;;0.80;;
13421;SDS011;6782;55.904;13.396;2023-03-08T11:13:35;1.23;;;0.70;;
13421;SDS011;6782;55.904;13.396;2023-03-08T11:16:06;0.93;;;0.80;;
13421;SDS011;6782;55.904;13.396;2023-03-08T11:18:45;1.13;;;0.70;;
13421;SDS011;6782;55.904;13.396;2023-03-08T11:21:22;0.73;;;0.67;;
13421;SDS011;6782;55.904;13.396;2023-03-08T11:23:58;1.90;;;0.87;;
13421;SDS011;6782;55.904;13.396;2023-03-08T11:26:36;1.77;;;0.80;;
13421;SDS011;6782;55.904;13.396;2023-03-08T11:29:09;1.87;;;0.80;;
13421;SDS011;6782;55.904;13.396;2023-03-08T11:31:48;0.70;;;0.60;;
13421;SDS011;6782;55.904;13.396;2023-03-08T11:37:26;0.53;;;0.53;;
13421;SDS011;6782;55.904;13.396;2023-03-08T11:40:04;2.27;;;0.80;;
13421;SDS011;6782;55.904;13.396;2023-03-08T11:42:49;2.03;;;0.80;;
13421;SDS011;6782;55.904;13.396;2023-03-08T11:45:25;1.00;;;0.70;;
13421;SDS011;6782;55.904;13.396;2023-03-08T11:48:02;1.80;;;0.90;;
13421;SDS011;6782;55.904;13.396;2023-03-08T11:50:46;2.57;;;0.70;;
13421;SDS011;6782;55.904;13.396;2023-03-08T11:53:18;2.07;;;0.80;;
13421;SDS011;6782;55.904;13.396;2023-03-08T11:56:01;2.47;;;0.73;;
13421;SDS011;6782;55.904;13.396;2023-03-08T11:58:41;1.30;;;0.90;;
13421;SDS011;6782;55.904;13.396;2023-03-08T12:01:14;2.87;;;1.00;;
13421;SDS011;6782;55.904;13.396;2023-03-08T12:03:46;1.57;;;0.80;;
13421;SDS011;6782;55.904;13.396;2023-03-08T12:06:20;0.77;;;0.70;;
13421;SDS011;6782;55.904;13.396;2023-03-08T12:08:52;1.53;;;0.90;;
13421;SDS011;6782;55.904;13.396;2023-03-08T12:11:25;0.80;;;0.60;;
13421;SDS011;6782;55.904;13.396;2023-03-08T12:13:57;1.83;;;0.80;;
13421;SDS011;6782;55.904;13.396;2023-03-08T12:16:33;1.20;;;0.70;;
13421;SDS011;6782;55.904;13.396;2023-03-08T12:19:09;0.80;;;0.80;;
13421;SDS011;6782;55.904;13.396;2023-03-08T12:21:44;0.80;;;0.70;;
13421;SDS011;6782;55.904;13.396;2023-03-08T12:24:20;0.93;;;0.87;;
13421;SDS011;6782;55.904;13.396;2023-03-08T12:26:58;1.73;;;0.93;;
13421;SDS011;6782;55.904;13.396;2023-03-08T12:29:32;5.53;;;0.97;;
13421;SDS011;6782;55.904;13.396;2023-03-08T12:32:04;1.43;;;0.80;;
13421;SDS011;6782;55.904;13.396;2023-03-08T12:34:35;2.90;;;0.80;;
13421;SDS011;6782;55.904;13.396;2023-03-08T12:37:03;1.80;;;0.80;;
13421;SDS011;6782;55.904;13.396;2023-03-08T12:39:52;0.50;;;0.50;;
13421;SDS011;6782;55.904;13.396;2023-03-08T12:42:28;0.73;;;0.70;;
13421;SDS011;6782;55.904;13.396;2023-03-08T12:48:07;0.77;;;0.53;;
13421;SDS011;6782;55.904;13.396;2023-03-08T12:50:43;1.27;;;0.80;;
13421;SDS011;6782;55.904;13.396;2023-03-08T12:53:20;1.00;;;0.60;;
13421;SDS011;6782;55.904;13.396;2023-03-08T12:56:02;1.13;;;0.80;;
13421;SDS011;6782;55.904;13.396;2023-03-08T12:58:35;1.47;;;0.90;;
13421;SDS011;6782;55.904;13.396;2023-03-08T13:01:05;0.77;;;0.70;;
13421;SDS011;6782;55.904;13.396;2023-03-08T13:03:51;1.50;;;0.80;;
13421;SDS011;6782;55.904;13.396;2023-03-08T13:06:35;0.80;;;0.80;;
13421;SDS011;6782;55.904;13.396;2023-03-08T13:09:21;1.73;;;0.70;;
13421;SDS011;6782;55.904;13.396;2023-03-08T13:11:56;0.70;;;0.70;;
13421;SDS011;6782;55.904;13.396;2023-03-08T13:14:37;1.63;;;0.80;;
13421;SDS011;6782;55.904;13.396;2023-03-08T13:20:02;1.13;;;0.70;;
13421;SDS011;6782;55.904;13.396;2023-03-08T13:22:37;0.63;;;0.63;;
13421;SDS011;6782;55.904;13.396;2023-03-08T13:25:16;1.73;;;0.73;;
13421;SDS011;6782;55.904;13.396;2023-03-08T13:27:54;1.07;;;0.77;;
13421;SDS011;6782;55.904;13.396;2023-03-08T13:30:28;0.60;;;0.60;;
13421;SDS011;6782;55.904;13.396;2023-03-08T13:32:59;2.00;;;0.83;;
13421;SDS011;6782;55.904;13.396;2023-03-08T13:35:28;1.43;;;0.60;;
13421;SDS011;6782;55.904;13.396;2023-03-08T13:37:56;0.83;;;0.67;;
13421;SDS011;6782;55.904;13.396;2023-03-08T13:40:26;2.03;;;0.90;;
13421;SDS011;6782;55.904;13.396;2023-03-08T13:42:55;1.00;;;0.90;;
13421;SDS011;6782;55.904;13.396;2023-03-08T13:45:24;0.63;;;0.60;;
13421;SDS011;6782;55.904;13.396;2023-03-08T13:47:53;0.70;;;0.60;;
13421;SDS011;6782;55.904;13.396;2023-03-08T13:50:28;0.70;;;0.70;;
13421;SDS011;6782;55.904;13.396;2023-03-08T13:53:01;1.27;;;0.70;;
13421;SDS011;6782;55.904;13.396;2023-03-08T13:55:38;1.00;;;0.73;;
13421;SDS011;6782;55.904;13.396;2023-03-08T13:58:12;5.73;;;1.00;;
13421;SDS011;6782;55.904;13.396;2023-03-08T14:00:56;1.47;;;0.70;;
13421;SDS011;6782;55.904;13.396;2023-03-08T14:03:27;2.27;;;0.90;;
13421;SDS011;6782;55.904;13.396;2023-03-08T14:05:57;2.07;;;0.90;;
13421;SDS011;6782;55.904;13.396;2023-03-08T14:08:25;1.50;;;1.00;;
13421;SDS011;6782;55.904;13.396;2023-03-08T14:11:05;1.53;;;0.87;;
13421;SDS011;6782;55.904;13.396;2023-03-08T14:13:39;1.73;;;0.70;;
13421;SDS011;6782;55.904;13.396;2023-03-08T14:16:08;1.23;;;0.87;;
13421;SDS011;6782;55.904;13.396;2023-03-08T14:18:49;1.90;;;1.03;;
13421;SDS011;6782;55.904;13.396;2023-03-08T14:21:20;2.10;;;0.60;;
13421;SDS011;6782;55.904;13.396;2023-03-08T14:23:50;0.97;;;0.70;;
13421;SDS011;6782;55.904;13.396;2023-03-08T14:26:22;1.23;;;0.60;;
13421;SDS011;6782;55.904;13.396;2023-03-08T14:29:00;0.63;;;0.60;;
13421;SDS011;6782;55.904;13.396;2023-03-08T14:31:31;1.67;;;0.80;;
13421;SDS011;6782;55.904;13.396;2023-03-08T14:33:59;0.60;;;0.60;;
13421;SDS011;6782;55.904;13.396;2023-03-08T14:36:30;0.97;;;0.83;;
13421;SDS011;6782;55.904;13.396;2023-03-08T14:39:16;1.23;;;0.90;;
13421;SDS011;6782;55.904;13.396;2023-03-08T14:41:44;1.27;;;0.93;;
13421;SDS011;6782;55.904;13.396;2023-03-08T14:44:13;1.57;;;0.80;;
13421;SDS011;6782;55.904;13.396;2023-03-08T14:47:09;0.70;;;0.60;;
13421;SDS011;6782;55.904;13.396;2023-03-08T14:49:53;2.43;;;0.70;;
13421;SDS011;6782;55.904;13.396;2023-03-08T14:52:23;1.17;;;0.70;;
13421;SDS011;6782;55.904;13.396;2023-03-08T14:54:53;0.60;;;0.60;;
13421;SDS011;6782;55.904;13.396;2023-03-08T14:57:22;1.70;;;0.60;;
13421;SDS011;6782;55.904;13.396;2023-03-08T14:59:51;2.83;;;0.70;;
13421;SDS011;6782;55.904;13.396;2023-03-08T15:02:22;1.77;;;0.70;;
13421;SDS011;6782;55.904;13.396;2023-03-08T15:04:49;1.57;;;0.70;;
13421;SDS011;6782;55.904;13.396;2023-03-08T15:07:17;1.33;;;0.67;;
13421;SDS011;6782;55.904;13.396;2023-03-08T15:09:49;1.13;;;0.60;;
13421;SDS011;6782;55.904;13.396;2023-03-08T15:12:17;2.13;;;0.73;;
13421;SDS011;6782;55.904;13.396;2023-03-08T15:14:45;2.30;;;0.90;;
13421;SDS011;6782;55.904;13.396;2023-03-08T15:17:12;2.43;;;1.03;;
13421;SDS011;6782;55.904;13.396;2023-03-08T15:19:39;1.67;;;0.67;;
13421;SDS011;6782;55.904;13.396;2023-03-08T15:22:09;3.50;;;0.87;;
13421;SDS011;6782;55.904;13.396;2023-03-08T15:24:40;2.33;;;0.90;;
13421;SDS011;6782;55.904;13.396;2023-03-08T15:27:20;1.80;;;0.60;;
13421;SDS011;6782;55.904;13.396;2023-03-08T15:29:48;2.57;;;1.00;;
13421;SDS011;6782;55.904;13.396;2023-03-08T15:32:15;0.50;;;0.50;;
13421;SDS011;6782;55.904;13.396;2023-03-08T15:34:42;2.67;;;0.80;;
13421;SDS011;6782;55.904;13.396;2023-03-08T15:37:11;2.60;;;0.80;;
13421;SDS011;6782;55.904;13.396;2023-03-08T15:39:40;1.77;;;0.70;;
13421;SDS011;6782;55.904;13.396;2023-03-08T15:42:07;2.83;;;0.73;;
13421;SDS011;6782;55.904;13.396;2023-03-08T15:44:36;1.90;;;0.73;;
13421;SDS011;6782;55.904;13.396;2023-03-08T15:47:03;1.27;;;0.67;;
13421;SDS011;6782;55.904;13.396;2023-03-08T15:49:31;0.90;;;0.60;;
13421;SDS011;6782;55.904;13.396;2023-03-08T15:51:58;1.80;;;0.80;;
13421;SDS011;6782;55.904;13.396;2023-03-08T15:54:26;1.27;;;0.80;;
13421;SDS011;6782;55.904;13.396;2023-03-08T15:56:53;1.13;;;0.70;;
13421;SDS011;6782;55.904;13.396;2023-03-08T15:59:20;1.87;;;0.90;;
13421;SDS011;6782;55.904;13.396;2023-03-08T16:01:49;2.33;;;0.60;;
13421;SDS011;6782;55.904;13.396;2023-03-08T16:04:16;3.80;;;1.10;;
13421;SDS011;6782;55.904;13.396;2023-03-08T16:06:44;5.27;;;1.00;;
13421;SDS011;6782;55.904;13.396;2023-03-08T16:09:11;3.57;;;0.83;;
13421;SDS011;6782;55.904;13.396;2023-03-08T16:11:39;3.07;;;0.97;;